createdAt,value
2019-04-05T00:00:12.186Z,33.95
2019-04-05T00:02:39.480Z,37.90
2019-04-05T00:05:06.849Z,36.03
2019-04-05T00:07:34.169Z,37.53
2019-04-05T00:10:01.485Z,35.15
2019-04-05T00:12:28.854Z,33.55
2019-04-05T00:14:56.141Z,33.55
2019-04-05T00:17:23.457Z,30.45
2019-04-05T00:19:50.741Z,37.73
2019-04-05T00:22:18.031Z,36.88
2019-04-05T00:24:45.350Z,33.48
2019-04-05T00:27:12.673Z,30.50
2019-04-05T00:29:39.978Z,32.40
2019-04-05T00:32:07.276Z,29.70
2019-04-05T00:34:34.590Z,30.55
2019-04-05T00:37:01.911Z,31.30
2019-04-05T00:39:29.268Z,29.23
2019-04-05T00:41:56.561Z,30.15
2019-04-05T00:44:23.891Z,28.05
2019-04-05T00:46:51.185Z,29.23
2019-04-05T00:49:18.510Z,26.97
2019-04-05T00:51:45.815Z,27.27
2019-04-05T00:54:13.107Z,28.57
2019-04-05T00:56:40.425Z,27.87
2019-04-05T00:59:07.716Z,30.50
2019-04-05T01:01:35.010Z,27.93
2019-04-05T01:04:02.331Z,25.50
2019-04-05T01:06:29.663Z,27.37
2019-04-05T01:08:56.955Z,29.42
2019-04-05T01:11:24.258Z,27.32
2019-04-05T01:13:51.639Z,25.80
2019-04-05T01:16:18.933Z,26.90
2019-04-05T01:18:46.264Z,27.87
2019-04-05T01:21:13.556Z,26.07
2019-04-05T01:23:40.874Z,24.32
2019-04-05T01:26:08.196Z,25.05
2019-04-05T01:28:35.496Z,29.60
2019-04-05T01:31:02.811Z,26.25
2019-04-05T01:33:30.118Z,22.98
2019-04-05T01:35:57.407Z,26.00
2019-04-05T01:38:24.735Z,27.20
2019-04-05T01:40:52.032Z,26.57
2019-04-05T01:43:19.353Z,30.05
2019-04-05T01:45:53.458Z,26.33
2019-04-05T01:48:15.590Z,22.85
2019-04-05T01:50:42.905Z,24.35
2019-04-05T01:53:10.195Z,24.37
2019-04-05T01:55:37.553Z,24.47
2019-04-05T01:58:04.794Z,24.18
2019-04-05T02:00:32.088Z,24.12
2019-04-05T02:02:59.402Z,24.63
2019-04-05T02:05:26.707Z,24.40
2019-04-05T02:07:54.009Z,23.95
2019-04-05T02:10:21.339Z,25.52
2019-04-05T02:12:48.631Z,20.72
2019-04-05T02:15:25.096Z,22.90
2019-04-05T02:17:52.450Z,21.05
2019-04-05T02:20:19.757Z,21.10
2019-04-05T02:22:47.078Z,21.97
2019-04-05T02:25:14.358Z,21.15
2019-04-05T02:27:41.681Z,23.15
2019-04-05T02:30:08.985Z,22.50
2019-04-05T02:32:36.280Z,20.72
2019-04-05T02:35:04.689Z,22.95
2019-04-05T02:37:31.953Z,26.23
2019-04-05T02:39:59.248Z,23.25
2019-04-05T02:42:26.571Z,21.20
2019-04-05T02:44:53.858Z,21.73
2019-04-05T02:47:21.173Z,22.13
2019-04-05T02:49:48.467Z,23.15
2019-04-05T02:52:15.755Z,25.12
2019-04-05T02:54:43.096Z,27.60
2019-04-05T02:57:10.393Z,28.07
2019-04-05T02:59:37.697Z,27.02
2019-04-05T03:02:05.000Z,24.77
2019-04-05T03:04:32.320Z,27.30
2019-04-05T03:06:59.633Z,25.82
2019-04-05T03:09:26.934Z,27.05
2019-04-05T03:11:54.272Z,28.62
2019-04-05T03:14:21.546Z,29.07
2019-04-05T03:16:48.867Z,44.23
2019-04-05T03:19:17.137Z,27.17
2019-04-05T03:21:45.844Z,29.85
2019-04-05T03:24:14.755Z,28.95
2019-04-05T03:26:43.721Z,26.85
2019-04-05T03:29:11.023Z,28.30
2019-04-05T03:31:38.646Z,27.93
2019-04-05T03:34:05.986Z,28.55
2019-04-05T03:36:33.296Z,29.80
2019-04-05T03:39:00.637Z,30.45
2019-04-05T03:41:27.935Z,28.35
2019-04-05T03:43:55.250Z,30.35
2019-04-05T03:46:22.551Z,28.35
2019-04-05T03:48:49.846Z,30.12
2019-04-05T03:51:17.227Z,26.93
2019-04-05T03:53:44.534Z,27.82
2019-04-05T03:56:11.871Z,30.95
2019-04-05T03:58:39.156Z,27.75
2019-04-05T04:01:06.453Z,28.60
2019-04-05T04:03:33.770Z,29.27
2019-04-05T04:06:01.134Z,31.73
2019-04-05T04:08:28.408Z,32.30
2019-04-05T04:10:55.698Z,32.88
2019-04-05T04:13:23.014Z,31.93
2019-04-05T04:15:50.396Z,29.05
2019-04-05T04:18:18.037Z,32.15
2019-04-05T04:20:46.970Z,30.72
2019-04-05T04:23:14.267Z,29.95
2019-04-05T04:25:41.590Z,32.80
2019-04-05T04:28:08.890Z,31.87
2019-04-05T04:30:36.223Z,33.92
2019-04-05T04:33:03.518Z,31.87
2019-04-05T04:35:30.815Z,31.02
2019-04-05T04:37:58.166Z,32.35
2019-04-05T04:40:25.504Z,33.92
2019-04-05T04:42:52.826Z,32.38
2019-04-05T04:45:20.118Z,28.75
2019-04-05T04:47:47.429Z,29.12
2019-04-05T04:50:14.782Z,34.38
2019-04-05T04:52:42.110Z,35.45
2019-04-05T04:55:09.407Z,34.58
2019-04-05T04:57:36.702Z,35.38
2019-04-05T05:00:04.686Z,37.88
2019-04-05T05:02:32.006Z,31.23
2019-04-05T05:04:59.294Z,32.53
2019-04-05T05:07:26.607Z,33.02
2019-04-05T05:09:53.905Z,29.65
2019-04-05T05:12:21.199Z,32.93
2019-04-05T05:14:48.527Z,29.77
2019-04-05T05:17:16.041Z,31.62
2019-04-05T05:19:43.396Z,35.00
2019-04-05T05:22:10.752Z,33.83
2019-04-05T05:24:38.163Z,31.95
2019-04-05T05:27:05.501Z,30.90
2019-04-05T05:29:33.083Z,33.13
2019-04-05T05:32:00.741Z,31.48
2019-04-05T05:34:28.168Z,34.40
2019-04-05T05:36:55.655Z,35.28
2019-04-05T05:39:23.112Z,34.03
2019-04-05T05:41:50.599Z,32.00
2019-04-05T05:44:17.947Z,33.92
2019-04-05T05:46:45.514Z,31.37
2019-04-05T05:49:12.884Z,35.75
2019-04-05T05:51:40.362Z,34.78
2019-04-05T05:54:07.891Z,36.38
2019-04-05T05:56:35.447Z,33.13
2019-04-05T05:59:02.968Z,37.23
2019-04-05T06:01:30.525Z,34.70
2019-04-05T06:03:58.038Z,36.45
2019-04-05T06:06:25.864Z,36.88
2019-04-05T06:08:53.372Z,30.65
2019-04-05T06:11:20.839Z,33.00
2019-04-05T06:13:48.298Z,32.28
2019-04-05T06:16:15.728Z,34.35
2019-04-05T06:18:43.081Z,33.00
2019-04-05T06:21:10.593Z,35.58
2019-04-05T06:23:38.043Z,30.40
2019-04-05T06:26:05.557Z,31.02
2019-04-05T06:28:33.134Z,30.50
2019-04-05T06:31:00.628Z,29.48
2019-04-05T06:33:31.777Z,29.27
2019-04-05T06:35:57.134Z,30.08
2019-04-05T06:38:24.422Z,30.57
2019-04-05T06:40:51.733Z,31.07
2019-04-05T06:43:19.045Z,27.00
2019-04-05T06:45:46.414Z,30.43
2019-04-05T06:48:19.566Z,25.60
2019-04-05T06:50:42.598Z,27.15
2019-04-05T06:53:09.929Z,24.32
2019-04-05T06:55:37.226Z,24.63
2019-04-05T06:58:04.534Z,28.83
2019-04-05T07:00:31.854Z,30.62
2019-04-05T07:02:59.213Z,32.93
2019-04-05T07:05:26.561Z,25.72
2019-04-05T07:07:53.874Z,27.32
2019-04-05T07:10:21.156Z,24.40
2019-04-05T07:12:48.498Z,23.67
2019-04-05T07:15:15.779Z,24.72
2019-04-05T07:17:43.071Z,23.67
2019-04-05T07:20:10.394Z,23.57
2019-04-05T07:22:39.531Z,24.27
2019-04-05T07:25:06.671Z,29.75
2019-04-05T07:27:33.961Z,20.00
2019-04-05T07:30:01.294Z,21.40
2019-04-05T07:32:31.115Z,25.97
2019-04-05T07:34:57.535Z,29.60
2019-04-05T07:37:24.862Z,23.55
2019-04-05T07:39:52.154Z,25.62
2019-04-05T07:42:19.470Z,23.75
2019-04-05T07:44:46.772Z,22.37
2019-04-05T07:47:14.094Z,26.75
2019-04-05T07:49:41.391Z,25.35
2019-04-05T07:52:08.677Z,23.75
2019-04-05T07:54:36.005Z,23.30
2019-04-05T07:57:03.334Z,26.05
2019-04-05T07:59:30.631Z,24.75
2019-04-05T08:01:57.990Z,23.32
2019-04-05T08:04:25.289Z,26.27
2019-04-05T08:06:52.704Z,26.15
2019-04-05T08:09:20.005Z,25.75
2019-04-05T08:11:47.325Z,22.27
2019-04-05T08:14:17.828Z,23.15
2019-04-05T08:16:43.945Z,22.22
2019-04-05T08:19:11.242Z,23.83
2019-04-05T08:21:38.544Z,24.92
2019-04-05T08:24:05.863Z,20.75
2019-04-05T08:26:33.155Z,24.95
2019-04-05T08:29:00.449Z,25.32
2019-04-05T08:31:27.778Z,21.45
2019-04-05T08:33:55.097Z,21.00
2019-04-05T08:36:22.380Z,20.85
2019-04-05T08:38:49.708Z,19.37
2019-04-05T08:41:16.998Z,21.57
2019-04-05T08:43:47.059Z,19.30
2019-04-05T08:46:13.262Z,20.30
2019-04-05T08:48:40.586Z,20.85
2019-04-05T08:51:07.914Z,22.95
2019-04-05T08:53:35.222Z,21.68
2019-04-05T08:56:02.626Z,34.83
2019-04-05T08:58:33.498Z,21.48
2019-04-05T09:00:58.862Z,21.70
2019-04-05T09:03:26.187Z,24.98
2019-04-05T09:05:53.487Z,23.10
2019-04-05T09:08:21.523Z,22.93
2019-04-05T09:10:48.901Z,21.00
2019-04-05T09:13:16.194Z,24.05
2019-04-05T09:15:43.523Z,25.70
2019-04-05T09:18:10.838Z,29.55
2019-04-05T09:20:38.122Z,26.40
2019-04-05T09:23:05.435Z,25.25
2019-04-05T09:25:32.730Z,25.97
2019-04-05T09:28:00.027Z,29.72
2019-04-05T09:30:27.404Z,24.27
2019-04-05T09:32:54.712Z,22.98
2019-04-05T09:35:22.101Z,24.67
2019-04-05T09:37:49.406Z,27.07
2019-04-05T09:40:16.736Z,24.43
2019-04-05T09:42:44.065Z,20.35
2019-04-05T09:45:11.592Z,28.32
2019-04-05T09:47:38.927Z,26.90
2019-04-05T09:50:06.226Z,54.35
2019-04-05T09:52:33.527Z,35.30
2019-04-05T09:55:00.847Z,23.20
2019-04-05T09:57:28.144Z,23.45
2019-04-05T09:59:55.469Z,26.73
2019-04-05T10:02:22.845Z,21.75
2019-04-05T10:04:50.091Z,23.92
2019-04-05T10:07:17.414Z,26.77
2019-04-05T10:09:44.714Z,23.80
2019-04-05T10:12:12.010Z,30.43
2019-04-05T10:14:39.347Z,24.40
2019-04-05T10:17:06.645Z,27.37
2019-04-05T10:19:33.966Z,24.87
2019-04-05T10:22:01.293Z,24.77
2019-04-05T10:24:28.581Z,32.05
2019-04-05T10:26:55.898Z,42.38
2019-04-05T10:29:23.217Z,27.45
2019-04-05T10:31:50.502Z,30.48
2019-04-05T10:34:17.834Z,27.60
2019-04-05T10:36:45.114Z,24.52
2019-04-05T10:39:12.414Z,33.50
2019-04-05T10:41:39.750Z,35.08
2019-04-05T10:44:08.674Z,32.30
2019-04-05T10:46:35.996Z,29.32
2019-04-05T10:49:03.290Z,26.60
2019-04-05T10:51:30.586Z,48.15
2019-04-05T10:53:57.907Z,36.23
2019-04-05T10:56:25.490Z,41.77
2019-04-05T10:58:52.781Z,41.65
2019-04-05T11:01:20.092Z,33.58
2019-04-05T11:03:47.412Z,31.77
2019-04-05T11:06:14.891Z,34.60
2019-04-05T11:08:42.194Z,36.30
2019-04-05T11:11:09.489Z,37.80
2019-04-05T11:13:36.812Z,34.83
2019-04-05T11:16:04.736Z,35.83
2019-04-05T11:18:32.802Z,31.97
2019-04-05T11:21:00.749Z,31.42
2019-04-05T11:23:28.053Z,32.05
2019-04-05T11:25:55.370Z,29.02
2019-04-05T11:28:22.667Z,28.90
2019-04-05T11:30:49.958Z,30.75
2019-04-05T11:33:19.688Z,32.75
2019-04-05T11:35:46.229Z,26.65
2019-04-05T11:38:13.692Z,25.25
2019-04-05T11:40:40.978Z,32.20
2019-04-05T11:43:08.292Z,24.82
2019-04-05T11:45:35.618Z,21.93
2019-04-05T11:48:03.283Z,27.20
2019-04-05T11:50:34.729Z,25.27
2019-04-05T11:52:59.534Z,30.02
2019-04-05T11:55:26.847Z,24.45
2019-04-05T11:57:54.870Z,32.50
2019-04-05T12:00:23.913Z,34.85
2019-04-05T12:02:55.545Z,24.07
2019-04-05T12:05:26.662Z,23.95
2019-04-05T12:07:51.894Z,24.82
2019-04-05T12:10:19.662Z,30.43
2019-04-05T12:12:47.022Z,21.75
2019-04-05T12:15:14.323Z,28.75
2019-04-05T12:17:41.649Z,24.67
2019-04-05T12:20:08.966Z,25.90
2019-04-05T12:22:36.282Z,26.07
2019-04-05T12:25:04.650Z,28.50
2019-04-05T12:27:32.024Z,20.40
2019-04-05T12:29:59.293Z,21.95
2019-04-05T12:32:34.557Z,25.97
2019-04-05T12:34:57.258Z,28.83
2019-04-05T12:37:24.545Z,27.42
2019-04-05T12:39:51.836Z,22.62
2019-04-05T12:42:19.149Z,27.13
2019-04-05T12:44:46.453Z,24.05
2019-04-05T12:47:15.729Z,23.38
2019-04-05T12:49:43.345Z,27.82
2019-04-05T12:52:21.754Z,21.55
2019-04-05T12:54:40.787Z,24.95
2019-04-05T12:57:08.074Z,24.12
2019-04-05T12:59:35.389Z,23.65
2019-04-05T13:02:02.691Z,29.60
2019-04-05T13:04:29.996Z,23.57
2019-04-05T13:06:57.312Z,26.17
2019-04-05T13:09:24.827Z,24.67
2019-04-05T13:11:52.228Z,29.67
2019-04-05T13:14:19.538Z,24.20
2019-04-05T13:16:49.383Z,27.20
2019-04-05T13:19:15.818Z,31.65
2019-04-05T13:21:43.134Z,23.15
2019-04-05T13:24:10.458Z,25.05
2019-04-05T13:26:37.750Z,31.27
2019-04-05T13:29:05.089Z,22.70
2019-04-05T13:31:32.393Z,24.12
2019-04-05T13:33:59.693Z,23.32
2019-04-05T13:36:27.029Z,27.82
2019-04-05T13:38:55.281Z,26.27
2019-04-05T13:41:23.187Z,28.60
2019-04-05T13:43:50.509Z,28.25
2019-04-05T13:46:22.699Z,24.70
2019-04-05T13:48:46.765Z,22.37
2019-04-05T13:51:22.246Z,26.42
2019-04-05T13:53:42.998Z,27.77
2019-04-05T13:56:10.949Z,24.43
2019-04-05T13:58:38.320Z,35.60
2019-04-05T14:01:05.609Z,28.55
2019-04-05T14:03:32.929Z,31.45
2019-04-05T14:06:00.222Z,27.40
2019-04-05T14:08:27.537Z,26.40
2019-04-05T14:10:54.834Z,29.00
2019-04-05T14:13:22.144Z,24.80
2019-04-05T14:15:49.449Z,24.98
2019-04-05T14:18:16.742Z,27.98
2019-04-05T14:20:44.066Z,23.20
2019-04-05T14:23:11.355Z,31.68
2019-04-05T14:25:38.653Z,23.05
2019-04-05T14:28:05.976Z,20.97
2019-04-05T14:30:33.737Z,20.57
2019-04-05T14:33:01.150Z,24.52
2019-04-05T14:35:28.474Z,22.98
2019-04-05T14:37:55.792Z,22.60
2019-04-05T14:40:23.099Z,20.08
2019-04-05T14:42:50.402Z,26.20
2019-04-05T14:45:17.713Z,19.53
2019-04-05T14:47:45.009Z,19.90
2019-04-05T14:50:12.310Z,19.60
2019-04-05T14:52:39.630Z,22.55
2019-04-05T14:55:06.949Z,21.82
2019-04-05T14:57:35.510Z,20.37
2019-04-05T15:00:04.188Z,22.75
2019-04-05T15:02:31.474Z,22.87
2019-04-05T15:04:58.811Z,22.52
2019-04-05T15:07:26.106Z,23.02
2019-04-05T15:09:55.579Z,21.05
2019-04-05T15:12:22.447Z,31.12
2019-04-05T15:14:49.736Z,23.45
2019-04-05T15:17:17.113Z,24.45
2019-04-05T15:19:44.430Z,27.20
2019-04-05T15:22:12.007Z,22.10
2019-04-05T15:24:39.351Z,21.23
2019-04-05T15:27:06.676Z,19.48
2019-04-05T15:29:33.966Z,21.17
2019-04-05T15:32:01.862Z,22.70
2019-04-05T15:34:29.316Z,20.68
2019-04-05T15:36:56.560Z,21.93
2019-04-05T15:39:23.877Z,19.95
2019-04-05T15:41:51.198Z,20.20
2019-04-05T15:44:18.511Z,20.85
2019-04-05T15:46:45.811Z,24.67
2019-04-05T15:49:13.141Z,21.05
2019-04-05T15:51:40.430Z,18.50
2019-04-05T15:54:07.728Z,18.50
2019-04-05T15:56:35.038Z,19.17
2019-04-05T15:59:04.535Z,17.85
2019-04-05T16:01:32.113Z,19.77
2019-04-05T16:04:00.549Z,15.07
2019-04-05T16:06:29.202Z,16.30
2019-04-05T16:08:56.491Z,15.20
2019-04-05T16:11:23.804Z,19.67
2019-04-05T16:13:51.112Z,17.20
2019-04-05T16:16:18.400Z,15.60
2019-04-05T16:18:45.699Z,18.10
2019-04-05T16:21:13.017Z,16.43
2019-04-05T16:23:40.320Z,16.07
2019-04-05T16:26:07.709Z,18.20
2019-04-05T16:28:34.998Z,16.10
2019-04-05T16:31:02.306Z,17.50
2019-04-05T16:33:29.618Z,20.23
2019-04-05T16:35:56.920Z,19.23
2019-04-05T16:38:24.242Z,20.43
2019-04-05T16:40:51.542Z,20.50
2019-04-05T16:43:18.838Z,20.30
2019-04-05T16:45:46.170Z,24.87
2019-04-05T16:48:13.480Z,23.62
2019-04-05T16:50:42.294Z,23.10
2019-04-05T16:53:09.785Z,24.35
2019-04-05T16:55:37.087Z,21.62
2019-04-05T16:58:04.450Z,22.90
2019-04-05T17:00:31.748Z,24.87
2019-04-05T17:02:59.026Z,19.40
2019-04-05T17:05:26.411Z,25.48
2019-04-05T17:07:53.711Z,24.95
2019-04-05T17:10:21.029Z,27.25
2019-04-05T17:12:48.335Z,26.52
2019-04-05T17:15:15.649Z,22.22
2019-04-05T17:17:42.943Z,22.42
2019-04-05T17:20:10.231Z,29.57
2019-04-05T17:22:37.586Z,25.95
2019-04-05T17:25:05.464Z,22.07
2019-04-05T17:27:32.822Z,25.95
2019-04-05T17:30:00.123Z,26.37
2019-04-05T17:32:27.479Z,25.50
2019-04-05T17:34:54.736Z,21.23
2019-04-05T17:37:22.025Z,29.85
2019-04-05T17:39:49.361Z,29.98
2019-04-05T17:42:16.664Z,25.40
2019-04-05T17:44:43.986Z,24.30
2019-04-05T17:47:11.279Z,29.37
2019-04-05T17:49:38.578Z,26.62
2019-04-05T17:52:05.894Z,27.90
2019-04-05T17:54:33.193Z,26.10
2019-04-05T17:57:00.501Z,27.70
2019-04-05T17:59:27.807Z,24.00
2019-04-05T18:01:55.172Z,30.25
2019-04-05T18:04:22.499Z,27.25
2019-04-05T18:06:49.804Z,30.70
2019-04-05T18:09:17.117Z,33.18
2019-04-05T18:11:44.418Z,27.07
2019-04-05T18:14:11.745Z,35.38
2019-04-05T18:16:39.045Z,31.23
2019-04-05T18:19:06.376Z,28.20
2019-04-05T18:21:33.661Z,31.37
2019-04-05T18:24:00.969Z,28.67
2019-04-05T18:26:28.279Z,27.73
2019-04-05T18:28:55.572Z,28.45
2019-04-05T18:31:22.894Z,26.85
2019-04-05T18:33:50.199Z,30.90
2019-04-05T18:36:18.371Z,29.75
2019-04-05T18:38:45.700Z,32.13
2019-04-05T18:41:12.985Z,33.85
2019-04-05T18:43:40.296Z,33.78
2019-04-05T18:46:07.598Z,30.08
2019-04-05T18:48:34.923Z,35.08
2019-04-05T18:51:02.220Z,29.07
2019-04-05T18:53:37.666Z,31.65
2019-04-05T18:55:58.481Z,29.90
2019-04-05T18:58:25.785Z,30.48
2019-04-05T19:00:53.105Z,37.33
2019-04-05T19:03:20.398Z,32.30
2019-04-05T19:05:47.707Z,36.05
2019-04-05T19:08:15.021Z,36.15
2019-04-05T19:10:42.327Z,31.90
2019-04-05T19:13:09.654Z,32.85
2019-04-05T19:15:36.975Z,32.85
2019-04-05T19:18:04.303Z,25.68
2019-04-05T19:20:31.650Z,34.05
2019-04-05T19:22:59.055Z,32.35
2019-04-05T19:25:26.460Z,32.55
2019-04-05T19:27:53.805Z,33.20
2019-04-05T19:50:13.058Z,30.52
2019-04-05T19:52:40.512Z,26.73
2019-04-05T19:55:07.787Z,29.77
2019-04-05T19:57:35.111Z,31.80
2019-04-05T20:00:02.444Z,29.35
2019-04-05T20:02:29.835Z,28.90
2019-04-05T20:04:57.119Z,32.10
2019-04-05T20:07:24.433Z,31.23
2019-04-05T20:09:51.817Z,30.48
2019-04-05T20:12:19.283Z,27.48
2019-04-05T20:14:46.673Z,33.02
2019-04-05T20:17:14.029Z,33.20
2019-04-05T20:19:41.383Z,33.05
2019-04-05T20:22:08.681Z,31.77
2019-04-05T20:24:35.992Z,36.25
2019-04-05T20:27:03.308Z,36.63
2019-04-05T20:29:30.611Z,34.92
2019-04-05T20:31:57.948Z,37.05
2019-04-05T20:34:25.230Z,33.48
2019-04-05T20:36:52.528Z,33.02
2019-04-05T20:39:19.847Z,35.68
2019-04-05T20:41:47.160Z,36.53
2019-04-05T20:44:14.625Z,32.67
2019-04-05T20:46:41.915Z,34.73
2019-04-05T20:49:09.245Z,30.35
2019-04-05T20:51:36.562Z,33.08
2019-04-05T20:54:03.870Z,35.73
2019-04-05T20:56:31.206Z,29.95
2019-04-05T20:58:58.557Z,36.40
2019-04-05T21:01:25.861Z,41.73
2019-04-05T21:03:53.159Z,38.08
2019-04-05T21:06:20.495Z,34.63
2019-04-05T21:08:47.798Z,34.20
2019-04-05T21:11:15.119Z,39.60
2019-04-05T21:13:42.421Z,30.95
2019-04-05T21:16:09.774Z,36.45
2019-04-05T21:18:37.083Z,39.10
2019-04-05T21:21:04.410Z,36.05
2019-04-05T21:23:31.739Z,32.35
2019-04-05T21:25:59.036Z,33.53
2019-04-05T21:28:26.384Z,35.05
2019-04-05T21:30:53.682Z,36.17
2019-04-05T21:33:21.022Z,30.55
2019-04-05T21:35:48.348Z,33.48
2019-04-05T21:38:15.690Z,31.97
2019-04-05T21:40:43.075Z,35.78
2019-04-05T21:43:10.385Z,33.80
2019-04-05T21:45:37.718Z,32.05
2019-04-05T21:48:05.022Z,31.17
2019-04-05T21:50:32.342Z,29.02
2019-04-05T21:52:59.646Z,31.48
2019-04-05T21:55:26.976Z,30.15
2019-04-05T21:57:54.351Z,30.52
2019-04-05T22:00:25.800Z,31.77
2019-04-05T22:02:53.269Z,32.88
2019-04-05T22:05:20.543Z,31.50
2019-04-05T22:07:47.897Z,31.75
2019-04-05T22:10:15.275Z,29.70
2019-04-05T22:12:42.532Z,28.98
2019-04-05T22:15:09.823Z,47.62
2019-04-05T22:17:37.155Z,34.50
2019-04-05T22:20:04.946Z,33.67
2019-04-05T22:22:32.265Z,31.00
2019-04-05T22:24:59.794Z,33.15
2019-04-05T22:27:27.142Z,30.95
2019-04-05T22:29:54.453Z,34.70
2019-04-05T22:32:21.791Z,31.02
2019-04-05T22:34:49.183Z,31.10
2019-04-05T22:37:16.510Z,32.40
2019-04-05T22:39:43.855Z,33.08
2019-04-05T22:42:11.215Z,34.75
2019-04-05T22:44:41.423Z,31.17
2019-04-05T22:47:07.543Z,31.00
2019-04-05T22:49:34.880Z,32.38
2019-04-05T22:52:02.234Z,29.85
2019-04-05T22:54:29.666Z,28.92
2019-04-05T22:56:57.000Z,29.55
2019-04-05T22:59:24.449Z,32.33
2019-04-05T23:01:51.809Z,30.88
2019-04-05T23:04:19.122Z,30.50
2019-04-05T23:06:46.458Z,37.90
2019-04-05T23:09:13.768Z,35.17
2019-04-05T23:11:43.809Z,31.57
2019-04-05T23:14:11.128Z,33.30
2019-04-05T23:16:38.461Z,32.05
2019-04-05T23:19:05.781Z,33.23
2019-04-05T23:21:33.101Z,33.53
2019-04-05T23:24:00.443Z,33.23
2019-04-05T23:26:28.875Z,32.38
2019-04-05T23:28:56.250Z,31.20
2019-04-05T23:31:23.661Z,34.13
2019-04-05T23:33:51.008Z,33.48
2019-04-05T23:36:18.310Z,34.40
2019-04-05T23:38:45.666Z,34.58
2019-04-05T23:41:13.059Z,32.20
2019-04-05T23:43:40.352Z,31.30
2019-04-05T23:46:07.689Z,33.20
2019-04-05T23:48:35.084Z,29.50
2019-04-05T23:51:02.501Z,34.70
2019-04-05T23:53:29.871Z,31.05
2019-04-05T23:55:57.193Z,36.42
2019-04-05T23:58:24.491Z,35.08
